createdAt,value
2023-01-10T00:00:01.445Z,5.2
2023-01-10T00:05:00.941Z,5.2
2023-01-10T00:10:01.125Z,5.2
2023-01-10T00:15:01.432Z,5.2
2023-01-10T00:20:01.146Z,5.2
2023-01-10T00:25:01.209Z,5.2
2023-01-10T00:30:01.168Z,5.2
2023-01-10T00:35:00.844Z,5.2
2023-01-10T00:40:01.382Z,5.2
2023-01-10T00:45:01.411Z,5.2
2023-01-10T00:50:01.206Z,5.2
2023-01-10T00:55:00.840Z,5.2
2023-01-10T01:00:01.418Z,5.3
2023-01-10T01:05:00.962Z,5.3
2023-01-10T01:10:01.160Z,5.3
2023-01-10T01:15:01.438Z,5.3
2023-01-10T01:20:01.202Z,5.3
2023-01-10T01:25:00.857Z,5.3
2023-01-10T01:30:01.397Z,5.3
2023-01-10T01:35:01.163Z,5.3
2023-01-10T01:40:01.188Z,5.4
2023-01-10T01:45:01.172Z,5.4
2023-01-10T01:50:01.404Z,5.4
2023-01-10T01:55:00.916Z,5.4
2023-01-10T02:00:01.436Z,5.4
2023-01-10T02:05:00.965Z,5.4
2023-01-10T02:10:01.109Z,5.4
2023-01-10T02:15:01.377Z,5.4
2023-01-10T02:20:01.123Z,5.3
2023-01-10T02:25:01.193Z,5.3
2023-01-10T02:30:01.225Z,5.3
2023-01-10T02:35:00.951Z,5.3
2023-01-10T02:40:01.396Z,5.3
2023-01-10T02:45:01.378Z,5.3
2023-01-10T02:50:01.167Z,5.3
2023-01-10T02:55:01.193Z,5.3
2023-01-10T03:00:01.167Z,5.2
2023-01-10T03:05:00.884Z,5.2
2023-01-10T03:10:01.367Z,5.2
2023-01-10T03:15:01.174Z,5.2
2023-01-10T03:20:01.111Z,5.2
2023-01-10T03:25:01.175Z,5.2
2023-01-10T03:30:01.183Z,5.2
2023-01-10T03:35:00.930Z,5.2
2023-01-10T03:40:01.314Z,5.2
2023-01-10T03:45:01.268Z,5.2
2023-01-10T03:50:01.151Z,5.1
2023-01-10T03:55:01.178Z,5.1
2023-01-10T04:00:01.224Z,5.1
2023-01-10T04:05:00.844Z,5.1
2023-01-10T04:10:01.423Z,5.1
2023-01-10T04:15:01.430Z,5.1
2023-01-10T04:20:01.183Z,5.2
2023-01-10T04:25:00.839Z,5.2
2023-01-10T04:30:01.330Z,5.2
2023-01-10T04:35:01.129Z,5.1
2023-01-10T04:40:01.334Z,5.2
2023-01-10T04:45:01.214Z,5.1
2023-01-10T04:50:01.399Z,5.1
2023-01-10T04:55:01.170Z,5.1
2023-01-10T05:00:01.425Z,5.1
2023-01-10T05:05:00.926Z,5.1
2023-01-10T05:10:01.065Z,5.1
2023-01-10T05:15:01.415Z,5.1
2023-01-10T05:20:01.137Z,5.1
2023-01-10T05:25:00.844Z,5.1
2023-01-10T05:30:01.423Z,5.1
2023-01-10T05:35:00.904Z,5.1
2023-01-10T05:40:01.113Z,5.1
2023-01-10T05:45:01.383Z,5.1
2023-01-10T05:50:01.150Z,5.1
2023-01-10T05:55:01.137Z,5.1
2023-01-10T06:00:02.380Z,5.1
2023-01-10T06:05:00.895Z,5.1
2023-01-10T06:10:01.161Z,5
2023-01-10T06:15:01.482Z,5
2023-01-10T06:20:01.403Z,5
2023-01-10T06:25:02.420Z,5
2023-01-10T06:30:01.476Z,5
2023-01-10T06:35:01.162Z,5
2023-01-10T06:40:01.171Z,5
2023-01-10T06:45:01.342Z,5
2023-01-10T06:50:01.425Z,5
2023-01-10T06:55:01.723Z,5.1
2023-01-10T07:05:00.940Z,5.1
2023-01-10T07:10:01.308Z,5.1
2023-01-10T07:15:01.461Z,5.1
2023-01-10T07:20:01.388Z,5
2023-01-10T07:25:01.247Z,5
2023-01-10T07:30:01.418Z,5
2023-01-10T07:35:01.152Z,5
2023-01-10T07:40:02.112Z,5.1
2023-01-10T07:50:01.327Z,5
2023-01-10T08:00:01.421Z,5.1
2023-01-10T08:05:01.675Z,5
2023-01-10T08:10:01.421Z,5.1
2023-01-10T08:15:01.457Z,5.1
2023-01-10T08:20:01.418Z,5.1
2023-01-10T08:25:01.149Z,5.1
2023-01-10T08:30:01.412Z,5.1
2023-01-10T08:35:01.269Z,5.1
2023-01-10T08:40:01.329Z,5.1
2023-01-10T08:45:01.405Z,5.1
2023-01-10T08:50:01.390Z,5.1
2023-01-10T08:55:01.333Z,5.2
2023-01-10T09:00:01.382Z,5.2
2023-01-10T09:05:01.187Z,5.3
2023-01-10T09:10:01.372Z,5.3
2023-01-10T09:15:01.340Z,5.2
2023-01-10T09:20:01.419Z,5.2
2023-01-10T09:25:01.234Z,5.2
2023-01-10T09:30:01.363Z,5.4
2023-01-10T09:35:01.159Z,5.4
2023-01-10T09:40:01.441Z,5.3
2023-01-10T09:45:01.419Z,5.3
2023-01-10T09:50:01.395Z,5.4
2023-01-10T09:55:01.207Z,5.4
2023-01-10T10:00:01.420Z,5.3
2023-01-10T10:05:01.168Z,5.3
2023-01-10T10:10:01.355Z,5.3
2023-01-10T10:15:01.408Z,5.3
2023-01-10T10:20:01.585Z,5.3
2023-01-10T10:25:01.287Z,5.3
2023-01-10T10:30:01.513Z,5.4
2023-01-10T10:35:01.227Z,5.3
2023-01-10T10:40:01.424Z,5.3
2023-01-10T10:45:01.399Z,5.4
2023-01-10T10:50:01.380Z,5.4
2023-01-10T10:55:01.208Z,5.3
2023-01-10T11:00:01.456Z,5.4
2023-01-10T11:05:01.303Z,5.4
2023-01-10T11:10:01.373Z,5.4
2023-01-10T11:15:01.425Z,5.3
2023-01-10T11:20:01.362Z,5.2
2023-01-10T11:25:01.193Z,5.2
2023-01-10T11:30:01.512Z,5.2
2023-01-10T11:35:01.220Z,5.3
2023-01-10T11:40:01.394Z,5.3
2023-01-10T11:45:01.599Z,5.2
2023-01-10T11:50:01.430Z,5.2
2023-01-10T12:05:01.937Z,5.3
2023-01-10T12:10:01.468Z,5.3
2023-01-10T12:20:01.409Z,5.4
2023-01-10T12:25:01.209Z,5.4
2023-01-10T12:30:01.218Z,5.4
2023-01-10T12:35:01.142Z,5.5
2023-01-10T12:40:01.327Z,5.4
2023-01-10T12:45:01.363Z,5.5
2023-01-10T12:50:01.687Z,5.3
2023-01-10T12:55:01.175Z,5.3
2023-01-10T13:00:01.466Z,5.4
2023-01-10T13:05:00.919Z,5.2
2023-01-10T13:10:01.758Z,5.3
2023-01-10T13:25:01.587Z,5.1
2023-01-10T13:30:01.858Z,5.2
2023-01-10T13:35:01.141Z,5.2
2023-01-10T13:40:01.365Z,5.1
2023-01-10T13:45:01.481Z,5.1
2023-01-10T13:50:01.366Z,4.9
2023-01-10T13:55:01.171Z,4.9
2023-01-10T14:00:01.420Z,4.9
2023-01-10T14:05:01.153Z,4.8
2023-01-10T14:10:03.809Z,4.9
2023-01-10T14:15:01.451Z,5
2023-01-10T14:20:01.349Z,4.8
2023-01-10T14:25:01.174Z,4.8
2023-01-10T14:30:01.355Z,4.8
2023-01-10T14:35:01.148Z,4.8
2023-01-10T14:40:01.367Z,4.8
2023-01-10T14:45:01.381Z,4.8
2023-01-10T14:50:01.431Z,4.8
2023-01-10T14:55:01.185Z,4.8
2023-01-10T15:00:01.310Z,4.8
2023-01-10T15:05:01.312Z,4.8
2023-01-10T15:10:01.389Z,4.8
2023-01-10T15:15:01.447Z,4.9
2023-01-10T15:20:01.357Z,4.9
2023-01-10T15:35:01.408Z,4.8
2023-01-10T15:40:01.243Z,4.8
2023-01-10T15:45:01.376Z,4.8
2023-01-10T15:55:01.335Z,4.7
2023-01-10T16:00:01.788Z,4.8
2023-01-10T16:05:01.091Z,4.7
2023-01-10T16:15:01.402Z,4.6
2023-01-10T16:20:01.708Z,4.6
2023-01-10T16:30:01.509Z,4.7
2023-01-10T16:35:01.776Z,4.6
2023-01-10T16:40:01.760Z,4.6
2023-01-10T16:45:02.264Z,4.6
2023-01-10T16:50:01.785Z,4.5
2023-01-10T16:55:01.190Z,4.5
2023-01-10T17:00:01.938Z,4.5
2023-01-10T17:05:01.126Z,4.5
2023-01-10T17:10:01.824Z,4.6
2023-01-10T17:15:01.395Z,4.6
2023-01-10T17:20:01.455Z,4.6
2023-01-10T17:25:01.347Z,4.7
2023-01-10T17:30:01.416Z,4.6
2023-01-10T17:35:01.158Z,4.7
2023-01-10T17:40:01.357Z,4.8
2023-01-10T17:45:02.159Z,4.8
2023-01-10T17:50:01.407Z,4.8
2023-01-10T18:00:01.493Z,4.8
2023-01-10T18:05:01.259Z,4.8
2023-01-10T18:10:01.347Z,4.8
2023-01-10T18:15:01.633Z,4.8
2023-01-10T18:20:01.371Z,4.8
2023-01-10T18:30:01.352Z,4.7
2023-01-10T18:35:01.279Z,4.7
2023-01-10T18:40:01.417Z,4.7
2023-01-10T18:45:01.536Z,4.7
2023-01-10T18:50:01.392Z,4.7
2023-01-10T18:55:02.436Z,4.6
2023-01-10T19:00:01.485Z,4.7
2023-01-10T19:05:01.278Z,4.6
2023-01-10T19:10:01.391Z,4.6
2023-01-10T19:15:01.433Z,4.6
2023-01-10T19:20:01.367Z,4.6
2023-01-10T19:25:01.215Z,4.6
2023-01-10T19:30:01.660Z,4.6
2023-01-10T19:35:01.259Z,4.6
2023-01-10T19:40:01.416Z,4.6
2023-01-10T19:45:01.489Z,4.6
2023-01-10T19:50:01.348Z,4.6
2023-01-10T19:55:01.173Z,4.6
2023-01-10T20:00:01.471Z,4.7
2023-01-10T20:05:01.187Z,4.6
2023-01-10T20:10:01.431Z,4.6
2023-01-10T20:15:01.494Z,4.6
2023-01-10T20:20:01.395Z,4.6
2023-01-10T20:25:01.249Z,4.6
2023-01-10T20:30:01.386Z,4.6
2023-01-10T20:35:01.271Z,4.6
2023-01-10T20:40:01.387Z,4.6
2023-01-10T20:45:01.502Z,4.6
2023-01-10T20:50:01.388Z,4.5
2023-01-10T20:55:01.208Z,4.6
2023-01-10T21:00:01.449Z,4.5
2023-01-10T21:05:01.456Z,4.5
2023-01-10T21:10:01.383Z,4.5
2023-01-10T21:15:01.499Z,4.5
2023-01-10T21:20:01.502Z,4.5
2023-01-10T21:25:01.193Z,4.5
2023-01-10T21:30:01.455Z,4.4
2023-01-10T21:35:01.145Z,4.4
2023-01-10T21:40:01.409Z,4.4
2023-01-10T21:45:01.204Z,4.4
2023-01-10T21:50:01.450Z,4.4
2023-01-10T21:55:01.235Z,4.4
2023-01-10T22:00:01.388Z,4.4
2023-01-10T22:05:01.211Z,4.4
2023-01-10T22:10:01.581Z,4.4
2023-01-10T22:15:01.208Z,4.4
2023-01-10T22:20:01.442Z,4.4
2023-01-10T22:25:01.191Z,4.5
2023-01-10T22:30:01.252Z,4.5
2023-01-10T22:35:00.842Z,4.5
2023-01-10T22:40:01.380Z,4.4
2023-01-10T22:45:01.400Z,4.4
2023-01-10T22:50:01.393Z,4.4
2023-01-10T22:55:01.189Z,4.4
2023-01-10T23:00:01.462Z,4.4
2023-01-10T23:05:01.145Z,4.5
2023-01-10T23:10:01.412Z,4.5
2023-01-10T23:15:01.288Z,4.5
2023-01-10T23:20:01.432Z,4.5
2023-01-10T23:25:00.976Z,4.5
2023-01-10T23:30:01.625Z,4.5
2023-01-10T23:35:01.149Z,4.5
2023-01-10T23:40:01.169Z,4.4
2023-01-10T23:45:01.423Z,4.4
2023-01-10T23:50:01.451Z,4.4
2023-01-10T23:55:01.147Z,4.4
